createdAt,value
2018-06-10T00:01:20.646Z,97736.63
2018-06-10T00:03:50.163Z,97738.29
2018-06-10T00:06:19.129Z,97731.45
2018-06-10T00:08:47.859Z,97735.31
2018-06-10T00:11:16.531Z,97733.75
2018-06-10T00:13:46.714Z,97736.96
2018-06-10T00:16:15.581Z,97732.55
2018-06-10T00:18:44.634Z,97733.70
2018-06-10T00:21:13.139Z,97730.72
2018-06-10T00:23:42.026Z,97727.19
2018-06-10T00:26:10.809Z,97718.98
2018-06-10T00:28:44.635Z,97715.45
2018-06-10T00:31:13.567Z,97711.34
2018-06-10T00:33:42.185Z,97710.91
2018-06-10T00:36:10.983Z,97710.23
2018-06-10T00:38:40.177Z,97703.20
2018-06-10T00:41:09.282Z,97699.14
2018-06-10T00:43:38.077Z,97697.10
2018-06-10T00:46:07.075Z,97696.79
2018-06-10T00:48:36.142Z,97698.52
2018-06-10T00:51:05.316Z,97693.86
2018-06-10T00:53:34.613Z,97693.23
2018-06-10T00:56:13.553Z,97695.69
2018-06-10T00:58:42.213Z,97697.34
2018-06-10T01:01:10.992Z,97699.16
2018-06-10T01:03:40.214Z,97700.75
2018-06-10T01:06:09.059Z,97700.31
2018-06-10T01:08:37.882Z,97708.75
2018-06-10T01:11:06.674Z,97706.77
2018-06-10T01:13:35.240Z,97709.63
2018-06-10T01:16:04.377Z,97707.02
2018-06-10T01:18:33.069Z,97704.05
2018-06-10T01:21:01.846Z,97707.19
2018-06-10T01:23:30.792Z,97706.17
2018-06-10T01:25:59.520Z,97701.75
2018-06-10T01:28:29.134Z,97692.80
2018-06-10T01:30:59.166Z,97699.74
2018-06-10T01:33:27.995Z,97688.61
2018-06-10T01:35:56.603Z,97689.98
2018-06-10T01:38:25.542Z,97686.80
2018-06-10T01:40:54.253Z,97691.02
2018-06-10T01:43:22.906Z,97675.20
2018-06-10T01:45:51.750Z,97669.97
2018-06-10T01:48:20.387Z,97665.16
2018-06-10T01:50:49.193Z,97653.77
2018-06-10T01:53:18.048Z,97655.13
2018-06-10T01:55:48.150Z,97654.81
2018-06-10T01:58:17.435Z,97652.44
2018-06-10T02:00:46.394Z,97653.68
2018-06-10T02:03:15.773Z,97651.95
2018-06-10T02:05:44.344Z,97657.17
2018-06-10T02:08:13.038Z,97655.13
2018-06-10T02:10:42.001Z,97661.19
2018-06-10T02:13:10.699Z,97656.20
2018-06-10T02:15:39.550Z,97664.04
2018-06-10T02:18:08.340Z,97659.50
2018-06-10T02:20:37.093Z,97654.96
2018-06-10T02:23:06.384Z,97656.13
2018-06-10T02:25:35.148Z,97658.28
2018-06-10T02:28:03.856Z,97659.65
2018-06-10T02:30:32.660Z,97655.64
2018-06-10T02:33:01.388Z,97661.78
2018-06-10T02:35:30.837Z,97661.02
2018-06-10T02:37:59.435Z,97659.98
2018-06-10T02:40:28.219Z,97660.34
2018-06-10T02:42:57.000Z,97663.21
2018-06-10T02:45:25.657Z,97662.77
2018-06-10T02:47:54.280Z,97659.14
2018-06-10T02:50:23.115Z,97660.30
2018-06-10T02:52:52.569Z,97649.73
2018-06-10T02:55:21.145Z,97650.41
2018-06-10T02:57:49.785Z,97650.55
2018-06-10T03:00:18.761Z,97644.33
2018-06-10T03:02:48.211Z,97649.45
2018-06-10T03:05:17.609Z,97645.14
2018-06-10T03:07:46.939Z,97645.37
2018-06-10T03:10:15.625Z,97642.19
2018-06-10T03:12:44.296Z,97638.56
2018-06-10T03:15:13.105Z,97640.61
2018-06-10T03:17:42.539Z,97637.87
2018-06-10T03:20:11.204Z,97642.32
2018-06-10T03:22:39.854Z,97646.77
2018-06-10T03:25:08.660Z,97650.50
2018-06-10T03:27:37.551Z,97642.77
2018-06-10T03:30:06.706Z,97647.88
2018-06-10T03:32:35.569Z,97654.93
2018-06-10T03:35:04.360Z,97653.02
2018-06-10T03:37:33.541Z,97661.98
2018-06-10T03:40:02.362Z,97655.84
2018-06-10T03:42:31.885Z,97660.17
2018-06-10T03:45:01.410Z,97659.25
2018-06-10T03:47:30.282Z,97660.16
2018-06-10T03:49:59.255Z,97663.69
2018-06-10T03:52:28.785Z,97661.97
2018-06-10T03:54:58.192Z,97667.66
2018-06-10T03:57:26.801Z,97668.56
2018-06-10T03:59:55.585Z,97667.07
2018-06-10T04:02:24.718Z,97659.67
2018-06-10T04:04:54.160Z,97653.75
2018-06-10T04:07:24.116Z,97657.61
2018-06-10T04:09:53.048Z,97660.11
2018-06-10T04:12:21.876Z,97665.75
2018-06-10T04:14:50.718Z,97669.97
2018-06-10T04:17:19.438Z,97668.91
2018-06-10T04:19:48.203Z,97667.73
2018-06-10T04:22:17.483Z,97675.80
2018-06-10T04:24:46.781Z,97674.36
2018-06-10T04:27:15.434Z,97665.57
2018-06-10T04:29:44.187Z,97673.77
2018-06-10T04:32:13.051Z,97670.27
2018-06-10T04:34:41.695Z,97670.30
2018-06-10T04:37:10.476Z,97671.78
2018-06-10T04:39:39.125Z,97674.51
2018-06-10T04:42:08.476Z,97678.56
2018-06-10T04:44:37.251Z,97679.71
2018-06-10T04:47:05.966Z,97675.13
2018-06-10T04:49:34.573Z,97672.98
2018-06-10T04:52:03.211Z,97672.83
2018-06-10T04:54:32.486Z,97673.67
2018-06-10T04:57:01.206Z,97682.16
2018-06-10T04:59:30.036Z,97677.14
2018-06-10T05:01:58.809Z,97681.48
2018-06-10T05:04:28.523Z,97679.56
2018-06-10T05:06:57.309Z,97680.28
2018-06-10T05:09:25.995Z,97675.42
2018-06-10T05:11:55.258Z,97672.61
2018-06-10T05:14:23.952Z,97669.16
2018-06-10T05:16:52.765Z,97655.62
2018-06-10T05:19:21.499Z,97664.36
2018-06-10T05:21:50.139Z,97658.20
2018-06-10T05:24:18.843Z,97663.67
2018-06-10T05:26:47.599Z,97664.43
2018-06-10T05:29:16.395Z,97661.29
2018-06-10T05:31:45.075Z,97666.63
2018-06-10T05:34:14.161Z,97665.50
2018-06-10T05:36:43.005Z,97667.48
2018-06-10T05:39:12.752Z,97680.31
2018-06-10T05:41:41.487Z,97677.97
2018-06-10T05:44:10.375Z,97681.63
2018-06-10T05:46:39.292Z,97672.61
2018-06-10T05:49:08.151Z,97674.00
2018-06-10T05:51:36.840Z,97686.17
2018-06-10T05:54:06.490Z,97696.89
2018-06-10T05:56:35.392Z,97697.84
2018-06-10T05:59:04.429Z,97691.27
2018-06-10T06:01:33.566Z,97689.67
2018-06-10T06:04:02.873Z,97686.77
2018-06-10T06:06:32.023Z,97690.80
2018-06-10T06:09:00.719Z,97700.59
2018-06-10T06:11:29.561Z,97703.61
2018-06-10T06:13:58.421Z,97704.94
2018-06-10T06:16:27.073Z,97704.31
2018-06-10T06:18:55.917Z,97701.48
2018-06-10T06:21:25.389Z,97707.67
2018-06-10T06:23:54.168Z,97708.78
2018-06-10T06:26:22.970Z,97709.96
2018-06-10T06:28:51.757Z,97712.05
2018-06-10T06:31:20.555Z,97718.16
2018-06-10T06:33:49.360Z,97721.22
2018-06-10T06:36:18.065Z,97720.23
2018-06-10T06:38:46.826Z,97713.62
2018-06-10T06:41:15.515Z,97709.13
2018-06-10T06:43:44.299Z,97706.14
2018-06-10T06:46:13.061Z,97707.33
2018-06-10T06:48:42.123Z,97709.65
2018-06-10T06:51:10.956Z,97705.27
2018-06-10T06:53:39.695Z,97704.81
2018-06-10T06:56:08.384Z,97701.47
2018-06-10T06:58:37.090Z,97699.72
2018-06-10T07:01:06.192Z,97693.28
2018-06-10T07:03:34.969Z,97694.27
2018-06-10T07:06:03.706Z,97694.84
2018-06-10T07:08:32.572Z,97696.78
2018-06-10T07:11:01.167Z,97695.91
2018-06-10T07:13:30.006Z,97694.00
2018-06-10T07:15:58.813Z,97694.22
2018-06-10T07:18:27.657Z,97693.89
2018-06-10T07:20:56.276Z,97691.61
2018-06-10T07:23:25.005Z,97695.97
2018-06-10T07:25:54.583Z,97701.45
2018-06-10T07:28:23.530Z,97700.36
2018-06-10T07:30:52.419Z,97705.68
2018-06-10T07:33:21.231Z,97705.47
2018-06-10T07:35:51.075Z,97705.52
2018-06-10T07:38:19.829Z,97710.05
2018-06-10T07:40:48.871Z,97711.20
2018-06-10T07:43:18.297Z,97704.16
2018-06-10T07:45:47.398Z,97707.95
2018-06-10T07:48:16.264Z,97711.58
2018-06-10T07:50:45.039Z,97707.28
2018-06-10T07:53:13.941Z,97706.31
2018-06-10T07:55:43.342Z,97707.23
2018-06-10T07:58:12.194Z,97713.47
2018-06-10T08:00:41.825Z,97701.79
2018-06-10T08:03:10.914Z,97699.77
2018-06-10T08:05:39.756Z,97699.56
2018-06-10T08:08:08.435Z,97697.91
2018-06-10T08:10:37.625Z,97700.48
2018-06-10T08:13:06.757Z,97689.44
2018-06-10T08:15:35.675Z,97692.56
2018-06-10T08:18:04.576Z,97686.63
2018-06-10T08:20:33.587Z,97687.64
2018-06-10T08:23:02.386Z,97691.55
2018-06-10T08:25:31.883Z,97683.59
2018-06-10T08:28:00.766Z,97691.54
2018-06-10T08:30:29.502Z,97694.23
2018-06-10T08:32:58.912Z,97698.12
2018-06-10T08:35:27.707Z,97687.72
2018-06-10T08:37:56.577Z,97680.05
2018-06-10T08:40:25.441Z,97682.45
2018-06-10T08:42:54.542Z,97684.05
2018-06-10T08:45:24.945Z,97679.34
2018-06-10T08:47:53.942Z,97673.17
2018-06-10T08:50:22.723Z,97676.96
2018-06-10T08:52:51.382Z,97673.82
2018-06-10T08:55:20.170Z,97675.70
2018-06-10T08:57:49.020Z,97671.84
2018-06-10T09:00:17.822Z,97676.19
2018-06-10T09:02:46.571Z,97671.52
2018-06-10T09:05:15.384Z,97678.81
2018-06-10T09:07:44.184Z,97677.47
2018-06-10T09:10:13.067Z,97677.86
2018-06-10T09:12:42.089Z,97676.63
2018-06-10T09:15:13.831Z,97683.02
2018-06-10T09:17:42.613Z,97668.68
2018-06-10T09:20:11.790Z,97673.90
2018-06-10T09:22:40.673Z,97672.34
2018-06-10T09:25:09.346Z,97666.70
2018-06-10T09:27:38.455Z,97667.28
2018-06-10T09:30:07.952Z,97675.58
2018-06-10T09:32:37.033Z,97668.70
2018-06-10T09:35:06.098Z,97670.70
2018-06-10T09:37:35.761Z,97667.57
2018-06-10T09:40:04.785Z,97661.31
2018-06-10T09:42:33.490Z,97659.45
2018-06-10T09:45:02.282Z,97667.63
2018-06-10T09:47:31.263Z,97658.65
2018-06-10T09:50:00.019Z,97665.64
2018-06-10T09:52:28.978Z,97660.47
2018-06-10T09:54:58.058Z,97656.20
2018-06-10T09:57:26.758Z,97659.63
2018-06-10T09:59:55.556Z,97653.75
2018-06-10T10:02:24.948Z,97657.88
2018-06-10T10:04:53.988Z,97654.78
2018-06-10T10:07:23.382Z,97660.08
2018-06-10T10:09:52.818Z,97658.98
2018-06-10T10:12:21.782Z,97657.47
2018-06-10T10:14:50.833Z,97646.19
2018-06-10T10:17:19.749Z,97645.50
2018-06-10T10:19:48.463Z,97645.39
2018-06-10T10:22:17.899Z,97649.66
2018-06-10T10:24:46.741Z,97648.77
2018-06-10T10:27:16.244Z,97633.62
2018-06-10T10:29:46.347Z,97629.77
2018-06-10T10:32:15.439Z,97635.77
2018-06-10T10:34:44.588Z,97633.17
2018-06-10T10:37:13.400Z,97630.72
2018-06-10T10:39:42.305Z,97630.23
2018-06-10T10:42:11.367Z,97634.12
2018-06-10T10:44:40.267Z,97633.91
2018-06-10T10:47:09.203Z,97625.07
2018-06-10T10:49:38.037Z,97623.66
2018-06-10T10:52:07.413Z,97626.08
2018-06-10T10:54:36.586Z,97622.56
2018-06-10T10:57:05.647Z,97613.28
2018-06-10T10:59:34.553Z,97616.98
2018-06-10T11:02:03.321Z,97610.38
2018-06-10T11:04:32.339Z,97600.01
2018-06-10T11:07:01.522Z,97598.11
2018-06-10T11:09:30.620Z,97596.94
2018-06-10T11:12:00.117Z,97601.94
2018-06-10T11:14:29.243Z,97602.86
2018-06-10T11:16:58.388Z,97592.68
2018-06-10T11:19:27.833Z,97592.03
2018-06-10T11:21:56.861Z,97589.17
2018-06-10T11:24:27.833Z,97590.95
2018-06-10T11:26:56.765Z,97594.20
2018-06-10T11:29:25.743Z,97604.04
2018-06-10T11:31:54.883Z,97607.92
2018-06-10T11:34:23.946Z,97605.36
2018-06-10T11:36:52.967Z,97602.36
2018-06-10T11:39:25.827Z,97600.69
2018-06-10T11:41:54.599Z,97591.55
2018-06-10T11:44:23.484Z,97587.50
2018-06-10T11:46:52.103Z,97589.80
2018-06-10T11:49:21.106Z,97597.14
2018-06-10T11:51:50.446Z,97590.58
2018-06-10T11:54:19.423Z,97589.07
2018-06-10T11:56:48.250Z,97577.67
2018-06-10T11:59:17.287Z,97576.38
2018-06-10T12:01:46.149Z,97576.81
2018-06-10T12:04:15.069Z,97572.89
2018-06-10T12:06:43.888Z,97573.48
2018-06-10T12:09:13.096Z,97572.69
2018-06-10T12:11:42.466Z,97568.92
2018-06-10T12:14:11.297Z,97568.20
2018-06-10T12:16:40.086Z,97577.31
2018-06-10T12:19:09.111Z,97567.23
2018-06-10T12:21:37.968Z,97573.50
2018-06-10T12:24:06.688Z,97574.55
2018-06-10T12:26:35.662Z,97565.19
2018-06-10T12:29:04.493Z,97561.55
2018-06-10T12:31:33.169Z,97569.13
2018-06-10T12:34:02.062Z,97569.56
2018-06-10T12:36:30.898Z,97560.36
2018-06-10T12:38:59.656Z,97554.55
2018-06-10T12:41:28.312Z,97559.98
2018-06-10T12:43:57.052Z,97558.47
2018-06-10T12:46:25.834Z,97558.46
2018-06-10T12:48:54.911Z,97557.70
2018-06-10T12:51:23.632Z,97553.31
2018-06-10T12:53:52.238Z,97558.02
2018-06-10T12:56:21.044Z,97554.44
2018-06-10T12:58:49.857Z,97560.42
2018-06-10T13:01:18.886Z,97562.20
2018-06-10T13:03:47.840Z,97567.28
2018-06-10T13:06:16.605Z,97556.44
2018-06-10T13:08:45.376Z,97548.66
2018-06-10T13:11:14.143Z,97544.03
2018-06-10T13:13:43.188Z,97555.61
2018-06-10T13:16:11.988Z,97555.46
2018-06-10T13:18:41.243Z,97549.77
2018-06-10T13:21:09.969Z,97544.22
2018-06-10T13:23:38.697Z,97548.22
2018-06-10T13:26:07.929Z,97552.99
2018-06-10T13:28:36.869Z,97550.00
2018-06-10T13:31:05.710Z,97542.64
2018-06-10T13:33:34.634Z,97547.86
2018-06-10T13:36:04.092Z,97549.49
2018-06-10T13:38:33.154Z,97542.02
2018-06-10T13:41:02.607Z,97543.39
2018-06-10T13:43:31.540Z,97533.18
2018-06-10T13:46:00.117Z,97538.02
2018-06-10T13:48:32.340Z,97540.87
2018-06-10T13:51:01.503Z,97547.70
2018-06-10T13:53:30.060Z,97543.37
2018-06-10T13:55:59.029Z,97549.58
2018-06-10T13:58:27.851Z,97539.56
2018-06-10T14:00:56.735Z,97535.97
2018-06-10T14:03:25.584Z,97543.14
2018-06-10T14:05:54.415Z,97540.95
2018-06-10T14:08:23.238Z,97537.20
2018-06-10T14:10:52.419Z,97541.45
2018-06-10T14:13:21.294Z,97542.13
2018-06-10T14:15:49.990Z,97539.33
2018-06-10T14:18:18.995Z,97540.38
2018-06-10T14:20:48.150Z,97546.23
2018-06-10T14:23:17.590Z,97544.19
2018-06-10T14:25:46.590Z,97541.55
2018-06-10T14:28:15.608Z,97540.81
2018-06-10T14:30:44.490Z,97532.17
2018-06-10T14:33:13.437Z,97526.20
2018-06-10T14:35:42.474Z,97522.27
2018-06-10T14:38:11.357Z,97511.94
2018-06-10T14:40:40.172Z,97513.56
2018-06-10T14:43:09.054Z,97499.39
2018-06-10T14:45:38.798Z,97499.33
2018-06-10T14:48:07.630Z,97500.70
2018-06-10T14:50:36.519Z,97485.72
2018-06-10T14:53:05.365Z,97490.24
2018-06-10T14:55:34.364Z,97488.39
2018-06-10T14:58:03.450Z,97490.67
2018-06-10T15:00:33.405Z,97486.78
2018-06-10T15:03:03.141Z,97494.33
2018-06-10T15:05:31.893Z,97495.58
2018-06-10T15:08:01.540Z,97505.03
2018-06-10T15:10:30.833Z,97508.91
2018-06-10T15:12:59.804Z,97501.47
2018-06-10T15:15:28.581Z,97499.23
2018-06-10T15:17:57.438Z,97495.95
2018-06-10T15:20:26.484Z,97484.14
2018-06-10T15:22:55.843Z,97477.59
2018-06-10T15:25:25.089Z,97480.45
2018-06-10T15:27:54.383Z,97484.86
2018-06-10T15:30:23.675Z,97502.61
2018-06-10T15:32:52.825Z,97505.71
2018-06-10T15:35:21.555Z,97498.73
2018-06-10T15:37:50.294Z,97534.65
2018-06-10T15:40:19.349Z,97540.49
2018-06-10T15:42:48.639Z,97536.05
2018-06-10T15:45:18.044Z,97530.52
2018-06-10T15:47:47.303Z,97535.25
2018-06-10T15:50:16.320Z,97528.68
2018-06-10T15:52:45.159Z,97544.06
2018-06-10T15:55:14.770Z,97546.44
2018-06-10T15:57:43.636Z,97582.64
2018-06-10T16:00:12.494Z,97595.23
2018-06-10T16:02:41.476Z,97602.47
2018-06-10T16:05:10.336Z,97614.31
2018-06-10T16:07:39.229Z,97620.36
2018-06-10T16:10:08.220Z,97621.64
2018-06-10T16:12:37.067Z,97606.92
2018-06-10T16:15:06.712Z,97568.42
2018-06-10T16:17:35.694Z,97561.11
2018-06-10T16:20:04.784Z,97560.18
2018-06-10T16:22:34.353Z,97554.29
2018-06-10T16:25:02.975Z,97554.39
2018-06-10T16:27:31.699Z,97550.88
2018-06-10T16:30:00.849Z,97558.73
2018-06-10T16:32:29.825Z,97562.20
2018-06-10T16:34:58.795Z,97558.73
2018-06-10T16:37:27.635Z,97553.73
2018-06-10T16:39:56.845Z,97554.39
2018-06-10T16:42:26.055Z,97560.39
2018-06-10T16:44:55.012Z,97561.80
2018-06-10T16:47:23.765Z,97555.28
2018-06-10T16:49:52.784Z,97557.21
2018-06-10T16:52:22.089Z,97555.02
2018-06-10T16:54:50.808Z,97554.18
2018-06-10T16:57:20.465Z,97546.26
2018-06-10T16:59:49.607Z,97544.02
2018-06-10T17:02:18.816Z,97542.09
2018-06-10T17:04:48.185Z,97540.86
2018-06-10T17:07:18.164Z,97534.52
2018-06-10T17:09:47.464Z,97528.03
2018-06-10T17:12:17.082Z,97527.23
2018-06-10T17:14:45.981Z,97521.91
2018-06-10T17:17:16.129Z,97526.08
2018-06-10T17:19:45.264Z,97528.03
2018-06-10T17:22:14.280Z,97527.09
2018-06-10T17:24:43.478Z,97531.80
2018-06-10T17:27:12.208Z,97528.25
2018-06-10T17:29:41.199Z,97526.91
2018-06-10T17:32:10.044Z,97530.49
2018-06-10T17:34:39.055Z,97530.13
2018-06-10T17:37:07.934Z,97527.95
2018-06-10T17:39:37.151Z,97535.45
2018-06-10T17:42:06.374Z,97528.16
2018-06-10T17:44:35.590Z,97522.84
2018-06-10T17:47:04.736Z,97524.42
2018-06-10T17:49:33.754Z,97531.31
2018-06-10T17:52:02.610Z,97521.64
2018-06-10T17:54:31.537Z,97522.04
2018-06-10T17:57:00.675Z,97525.16
2018-06-10T17:59:29.592Z,97519.29
2018-06-10T18:01:58.409Z,97523.81
2018-06-10T18:04:27.474Z,97520.05
2018-06-10T18:06:56.985Z,97520.17
2018-06-10T18:09:26.060Z,97516.76
2018-06-10T18:11:55.150Z,97511.76
2018-06-10T18:14:24.060Z,97514.86
2018-06-10T18:16:52.840Z,97508.32
2018-06-10T18:19:21.918Z,97491.19
2018-06-10T18:21:50.695Z,97494.30
2018-06-10T18:24:20.551Z,97494.06
2018-06-10T18:26:49.440Z,97496.30
2018-06-10T18:29:18.691Z,97495.92
2018-06-10T18:31:47.866Z,97489.12
2018-06-10T18:34:18.581Z,97491.68
2018-06-10T18:36:47.464Z,97500.92
2018-06-10T18:39:17.509Z,97506.06
2018-06-10T18:41:46.570Z,97504.25
2018-06-10T18:44:15.605Z,97506.56
2018-06-10T18:46:45.279Z,97508.17
2018-06-10T18:49:14.420Z,97503.78
2018-06-10T18:51:43.498Z,97497.99
2018-06-10T18:54:13.055Z,97511.03
2018-06-10T18:56:42.093Z,97512.45
2018-06-10T18:59:11.307Z,97523.16
2018-06-10T19:01:40.479Z,97524.14
2018-06-10T19:04:09.669Z,97525.26
2018-06-10T19:06:38.960Z,97515.02
2018-06-10T19:09:10.263Z,97516.80
2018-06-10T19:11:39.413Z,97519.13
2018-06-10T19:14:08.632Z,97516.20
2018-06-10T19:16:37.662Z,97516.35
2018-06-10T19:19:06.662Z,97525.16
2018-06-10T19:21:35.460Z,97516.16
2018-06-10T19:24:05.411Z,97518.56
2018-06-10T19:26:35.242Z,97519.69
2018-06-10T19:29:04.214Z,97517.78
2018-06-10T19:31:33.278Z,97521.97
2018-06-10T19:34:02.083Z,97525.05
2018-06-10T19:36:31.133Z,97532.78
2018-06-10T19:39:00.068Z,97539.18
2018-06-10T19:41:29.177Z,97547.21
2018-06-10T19:43:58.266Z,97557.60
2018-06-10T19:46:27.508Z,97562.27
2018-06-10T19:48:57.526Z,97568.28
2018-06-10T19:51:27.036Z,97568.84
2018-06-10T19:53:56.130Z,97571.81
2018-06-10T19:56:25.545Z,97577.61
2018-06-10T19:58:54.590Z,97578.03
2018-06-10T20:01:23.937Z,97578.46
2018-06-10T20:03:52.680Z,97582.52
2018-06-10T20:06:21.497Z,97591.83
2018-06-10T20:08:50.519Z,97587.34
2018-06-10T20:11:19.756Z,97589.43
2018-06-10T20:13:48.791Z,97590.00
2018-06-10T20:16:18.364Z,97597.36
2018-06-10T20:18:48.352Z,97598.58
2018-06-10T20:21:17.565Z,97594.16
2018-06-10T20:23:46.433Z,97588.77
2018-06-10T20:26:15.491Z,97599.95
2018-06-10T20:28:44.352Z,97602.17
2018-06-10T20:31:13.482Z,97602.55
2018-06-10T20:33:42.590Z,97605.34
2018-06-10T20:36:11.959Z,97606.15
2018-06-10T20:38:41.046Z,97613.08
2018-06-10T20:41:10.275Z,97616.39
2018-06-10T20:43:39.422Z,97616.48
2018-06-10T20:46:09.015Z,97618.05
2018-06-10T20:48:38.025Z,97610.25
2018-06-10T20:51:06.793Z,97612.52
2018-06-10T20:53:35.675Z,97607.23
2018-06-10T20:56:04.560Z,97614.59
2018-06-10T20:58:33.561Z,97606.52
2018-06-10T21:01:03.087Z,97615.16
2018-06-10T21:03:32.416Z,97613.41
2018-06-10T21:06:01.499Z,97611.61
2018-06-10T21:08:30.751Z,97618.26
2018-06-10T21:11:00.407Z,97617.40
2018-06-10T21:13:30.163Z,97628.63
2018-06-10T21:15:59.066Z,97628.27
2018-06-10T21:18:28.059Z,97631.98
2018-06-10T21:20:57.071Z,97626.16
2018-06-10T21:23:26.516Z,97630.25
2018-06-10T21:25:55.385Z,97637.00
2018-06-10T21:28:24.286Z,97642.20
2018-06-10T21:30:53.717Z,97644.20
2018-06-10T21:33:22.942Z,97642.01
2018-06-10T21:35:52.160Z,97656.05
2018-06-10T21:38:21.096Z,97645.23
2018-06-10T21:40:50.706Z,97651.84
2018-06-10T21:43:19.626Z,97654.95
2018-06-10T21:45:48.317Z,97665.19
2018-06-10T21:48:17.306Z,97662.45
2018-06-10T21:50:46.714Z,97670.42
2018-06-10T21:53:15.947Z,97667.63
2018-06-10T21:55:44.614Z,97669.59
2018-06-10T21:58:13.698Z,97665.98
2018-06-10T22:00:42.690Z,97658.55
2018-06-10T22:03:11.468Z,97662.52
2018-06-10T22:05:40.311Z,97666.32
2018-06-10T22:08:09.261Z,97660.67
2018-06-10T22:10:37.971Z,97655.83
2018-06-10T22:13:06.859Z,97655.16
2018-06-10T22:15:35.611Z,97657.23
2018-06-10T22:18:05.141Z,97662.83
2018-06-10T22:20:33.826Z,97668.78
2018-06-10T22:23:02.699Z,97672.24
2018-06-10T22:25:31.553Z,97663.98
2018-06-10T22:28:00.138Z,97667.21
2018-06-10T22:30:28.948Z,97656.89
2018-06-10T22:32:58.606Z,97671.80
2018-06-10T22:35:27.874Z,97669.58
2018-06-10T22:37:56.637Z,97655.04
2018-06-10T22:40:25.386Z,97660.07
2018-06-10T22:42:54.451Z,97660.40
2018-06-10T22:45:23.307Z,97648.56
2018-06-10T22:47:52.005Z,97647.97
2018-06-10T22:50:22.216Z,97639.69
2018-06-10T22:53:00.548Z,97631.42
2018-06-10T22:55:30.572Z,97623.42
2018-06-10T22:57:59.777Z,97624.79
2018-06-10T23:00:30.098Z,97622.05
2018-06-10T23:03:00.815Z,97623.42
2018-06-10T23:05:33.337Z,97632.53
2018-06-10T23:08:02.571Z,97633.14
2018-06-10T23:10:33.628Z,97636.11
2018-06-10T23:13:03.231Z,97643.38
2018-06-10T23:15:33.600Z,97629.41
2018-06-10T23:18:06.211Z,97640.16
2018-06-10T23:20:38.165Z,97639.96
2018-06-10T23:23:06.919Z,97636.55
2018-06-10T23:25:36.276Z,97636.72
2018-06-10T23:28:04.972Z,97642.27
2018-06-10T23:30:34.020Z,97644.52
2018-06-10T23:33:02.691Z,97637.61
2018-06-10T23:35:31.480Z,97639.77
2018-06-10T23:38:00.561Z,97637.77
2018-06-10T23:40:29.797Z,97637.58
2018-06-10T23:42:59.191Z,97638.05
2018-06-10T23:45:28.441Z,97631.80
2018-06-10T23:47:57.235Z,97632.16
2018-06-10T23:50:25.815Z,97637.02
2018-06-10T23:52:54.634Z,97643.92
2018-06-10T23:55:23.370Z,97638.73
2018-06-10T23:57:52.441Z,97636.05
